createdAt,value
2022-09-28T00:01:25.406Z,96127.75
2022-09-28T00:03:58.082Z,96130.19
2022-09-28T00:06:27.872Z,96142.16
2022-09-28T00:08:55.975Z,96135.09
2022-09-28T00:11:26.496Z,96125.66
2022-09-28T00:13:56.609Z,96123.63
2022-09-28T00:16:28.574Z,96127.19
2022-09-28T00:18:55.808Z,96101.56
2022-09-28T00:21:26.780Z,96107.44
2022-09-28T00:24:12.438Z,96098.03
2022-09-28T00:26:52.280Z,96099.50
2022-09-28T00:29:29.005Z,96088.34
2022-09-28T00:32:02.054Z,96079.63
2022-09-28T00:34:32.529Z,96076.72
2022-09-28T00:37:00.884Z,96070.88
2022-09-28T00:39:27.773Z,96080.56
2022-09-28T00:41:54.835Z,96073.38
2022-09-28T00:44:42.691Z,96065.75
2022-09-28T00:47:37.867Z,96064.63
2022-09-28T00:50:18.043Z,96055.25
2022-09-28T00:53:11.476Z,96040.66
2022-09-28T00:56:07.404Z,96040.50
2022-09-28T00:58:43.182Z,96029.19
2022-09-28T01:01:10.335Z,96039.84
2022-09-28T01:03:38.318Z,96034.66
2022-09-28T01:06:07.425Z,96048.28
2022-09-28T01:08:35.985Z,96032.91
2022-09-28T01:11:03.102Z,96031.72
2022-09-28T01:13:32.516Z,96024.34
2022-09-28T01:16:21.673Z,96026.94
2022-09-28T01:19:05.478Z,96029.94
2022-09-28T01:22:04.366Z,96014.41
2022-09-28T01:24:43.145Z,96010.84
2022-09-28T01:28:05.519Z,96005.69
2022-09-28T01:30:45.879Z,95988.50
2022-09-28T01:33:23.550Z,95990.69
2022-09-28T01:36:01.971Z,95974.66
2022-09-28T01:38:40.885Z,95967.56
2022-09-28T01:41:09.120Z,95959.50
2022-09-28T01:43:42.673Z,95945.47
2022-09-28T01:46:19.156Z,95946.13
2022-09-28T01:48:56.666Z,95938.38
2022-09-28T01:51:39.775Z,95936.72
2022-09-28T01:54:26.799Z,95931.56
2022-09-28T01:57:26.026Z,95922.53
2022-09-28T02:00:10.589Z,95923.84
2022-09-28T02:02:53.787Z,95917.72
2022-09-28T02:05:32.755Z,95917.06
2022-09-28T02:08:09.228Z,95903.44
2022-09-28T02:10:45.443Z,95901.50
2022-09-28T02:13:39.014Z,95897.97
2022-09-28T02:16:22.187Z,95889.91
2022-09-28T02:18:50.266Z,95893.31
2022-09-28T02:21:33.820Z,95887.31
2022-09-28T02:24:12.282Z,95891.38
2022-09-28T02:26:44.389Z,95884.44
2022-09-28T02:29:11.752Z,95879.09
2022-09-28T02:31:38.801Z,95864.06
2022-09-28T02:34:05.677Z,95856.63
2022-09-28T02:36:33.771Z,95859.66
2022-09-28T02:39:02.174Z,95856.38
2022-09-28T02:41:46.774Z,95860.75
2022-09-28T02:44:23.635Z,95852.31
2022-09-28T02:47:22.375Z,95858.16
2022-09-28T02:50:12.945Z,95846.88
2022-09-28T02:53:08.984Z,95845.22
2022-09-28T02:56:15.918Z,95849.72
2022-09-28T02:59:15.221Z,95840.34
2022-09-28T03:02:18.122Z,95837.31
2022-09-28T03:04:56.445Z,95834.72
2022-09-28T03:07:32.583Z,95832.00
2022-09-28T03:10:13.586Z,95834.94
2022-09-28T03:12:42.688Z,95828.78
2022-09-28T03:15:27.330Z,95815.84
2022-09-28T03:17:54.551Z,95814.22
2022-09-28T03:20:21.327Z,95813.41
2022-09-28T03:23:06.030Z,95802.22
2022-09-28T03:25:34.787Z,95800.31
2022-09-28T03:28:01.837Z,95802.59
2022-09-28T03:30:28.557Z,95806.78
2022-09-28T03:33:00.236Z,95800.16
2022-09-28T03:35:27.212Z,95800.16
2022-09-28T03:37:57.343Z,95779.97
2022-09-28T03:40:24.327Z,95785.00
2022-09-28T03:42:51.147Z,95779.00
2022-09-28T03:45:17.817Z,95767.34
2022-09-28T03:47:48.671Z,95770.91
2022-09-28T03:50:16.067Z,95759.09
2022-09-28T03:52:43.321Z,95762.50
2022-09-28T03:55:10.835Z,95762.34
2022-09-28T03:57:37.916Z,95757.00
2022-09-28T04:00:06.105Z,95754.91
2022-09-28T04:02:34.892Z,95747.13
2022-09-28T04:05:02.123Z,95746.97
2022-09-28T04:07:31.119Z,95730.78
2022-09-28T04:09:58.155Z,95728.19
2022-09-28T04:12:24.863Z,95725.75
2022-09-28T04:14:51.564Z,95728.19
2022-09-28T04:17:18.369Z,95723.03
2022-09-28T04:19:45.111Z,95719.47
2022-09-28T04:22:11.818Z,95716.06
2022-09-28T04:24:38.982Z,95712.66
2022-09-28T04:27:24.127Z,95709.75
2022-09-28T04:29:50.811Z,95707.16
2022-09-28T04:32:17.514Z,95698.75
2022-09-28T04:34:44.589Z,95698.94
2022-09-28T04:37:11.635Z,95687.16
2022-09-28T04:39:38.434Z,95692.00
2022-09-28T04:42:05.474Z,95686.38
2022-09-28T04:44:32.160Z,95693.03
2022-09-28T04:47:02.863Z,95692.72
2022-09-28T04:49:50.408Z,95695.31
2022-09-28T04:52:54.723Z,95695.94
2022-09-28T04:55:39.941Z,95696.75
2022-09-28T04:58:26.093Z,95689.81
2022-09-28T05:00:54.171Z,95696.91
2022-09-28T05:03:21.063Z,95697.88
2022-09-28T05:05:48.950Z,95700.84
2022-09-28T05:08:16.481Z,95698.75
2022-09-28T05:10:43.845Z,95697.78
2022-09-28T05:13:12.533Z,95692.44
2022-09-28T05:15:41.465Z,95685.16
2022-09-28T05:18:08.831Z,95682.28
2022-09-28T05:20:41.677Z,95677.22
2022-09-28T05:23:11.741Z,95678.19
2022-09-28T05:25:39.781Z,95677.53
2022-09-28T05:28:07.046Z,95665.56
2022-09-28T05:30:35.527Z,95673.31
2022-09-28T05:33:03.935Z,95670.72
2022-09-28T05:35:31.601Z,95662.47
2022-09-28T05:38:05.304Z,95675.97
2022-09-28T05:40:32.617Z,95667.22
2022-09-28T05:43:01.813Z,95657.81
2022-09-28T05:45:29.429Z,95655.22
2022-09-28T05:47:56.712Z,95656.03
2022-09-28T05:50:24.178Z,95664.28
2022-09-28T05:53:06.449Z,95666.88
2022-09-28T05:55:34.471Z,95668.34
2022-09-28T05:58:05.709Z,95667.22
2022-09-28T06:00:34.247Z,95666.91
2022-09-28T06:03:09.201Z,95666.59
2022-09-28T06:05:39.147Z,95657.03
2022-09-28T06:08:10.165Z,95657.03
2022-09-28T06:10:37.452Z,95657.84
2022-09-28T06:13:04.568Z,95664.66
2022-09-28T06:15:35.151Z,95649.91
2022-09-28T06:18:20.905Z,95653.47
2022-09-28T06:20:47.584Z,95661.91
2022-09-28T06:23:14.653Z,95660.94
2022-09-28T06:25:41.565Z,95660.47
2022-09-28T06:28:14.747Z,95661.59
2022-09-28T06:30:43.512Z,95672.81
2022-09-28T06:33:13.850Z,95681.41
2022-09-28T06:35:41.061Z,95682.72
2022-09-28T06:38:08.466Z,95679.16
2022-09-28T06:40:36.179Z,95688.25
2022-09-28T06:43:11.145Z,95702.53
2022-09-28T06:45:39.068Z,95703.31
2022-09-28T06:48:07.723Z,95693.59
2022-09-28T06:50:39.460Z,95695.88
2022-09-28T06:53:10.297Z,95688.75
2022-09-28T06:55:42.150Z,95707.38
2022-09-28T06:58:15.318Z,95693.59
2022-09-28T07:00:43.086Z,95705.59
2022-09-28T07:03:19.792Z,95700.13
2022-09-28T07:05:53.831Z,95703.84
2022-09-28T07:08:24.699Z,95709.19
2022-09-28T07:10:56.331Z,95715.38
2022-09-28T07:16:15.243Z,95726.09
2022-09-28T07:18:42.214Z,95727.72
2022-09-28T07:21:15.783Z,95726.75
2022-09-28T07:23:53.413Z,95742.81
2022-09-28T07:26:24.007Z,95744.09
2022-09-28T07:28:51.916Z,95741.38
2022-09-28T07:31:18.704Z,95739.41
2022-09-28T07:33:47.003Z,95748.66
2022-09-28T07:36:14.084Z,95758.25
2022-09-28T07:38:41.278Z,95749.81
2022-09-28T07:41:11.786Z,95753.38
2022-09-28T07:43:40.092Z,95767.19
2022-09-28T07:46:14.412Z,95765.06
2022-09-28T07:48:42.949Z,95769.59
2022-09-28T07:51:10.097Z,95757.56
2022-09-28T07:53:38.347Z,95764.38
2022-09-28T07:56:09.287Z,95777.06
2022-09-28T07:58:38.235Z,95776.09
2022-09-28T08:01:14.943Z,95775.28
2022-09-28T08:03:46.182Z,95778.06
2022-09-28T08:06:17.081Z,95784.53
2022-09-28T08:08:44.968Z,95790.69
2022-09-28T08:11:18.653Z,95791.50
2022-09-28T08:13:46.359Z,95799.44
2022-09-28T08:16:13.414Z,95798.78
2022-09-28T08:18:40.235Z,95818.09
2022-09-28T08:21:25.553Z,95827.97
2022-09-28T08:23:52.934Z,95828.53
2022-09-28T08:26:19.812Z,95825.13
2022-09-28T08:28:47.624Z,95842.34
2022-09-28T08:31:14.513Z,95845.91
2022-09-28T08:33:44.469Z,95842.31
2022-09-28T08:36:11.389Z,95833.22
2022-09-28T08:38:38.151Z,95837.63
2022-09-28T08:41:35.308Z,95838.13
2022-09-28T08:44:30.281Z,95835.81
2022-09-28T08:47:04.895Z,95848.66
2022-09-28T08:49:39.457Z,95854.50
2022-09-28T08:52:17.795Z,95850.13
2022-09-28T08:55:00.286Z,95861.16
2022-09-28T08:57:50.793Z,95862.94
2022-09-28T09:00:39.786Z,95863.75
2022-09-28T09:03:13.377Z,95871.88
2022-09-28T09:06:20.498Z,95864.72
2022-09-28T09:09:00.921Z,95872.69
2022-09-28T09:12:18.002Z,95872.84
2022-09-28T09:15:38.870Z,95869.59
2022-09-28T09:18:36.161Z,95873.84
2022-09-28T09:21:16.225Z,95874.66
2022-09-28T09:23:56.767Z,95885.00
2022-09-28T09:26:39.065Z,95880.91
2022-09-28T09:29:08.689Z,95886.56
2022-09-28T09:32:19.523Z,95885.59
2022-09-28T09:35:08.230Z,95894.13
2022-09-28T09:38:17.323Z,95894.69
2022-09-28T09:41:22.346Z,95890.81
2022-09-28T09:44:22.961Z,95896.34
2022-09-28T09:47:07.691Z,95903.34
2022-09-28T09:49:51.522Z,95897.47
2022-09-28T09:52:55.594Z,95898.16
2022-09-28T09:55:34.350Z,95892.94
2022-09-28T09:58:10.212Z,95898.09
2022-09-28T10:00:44.138Z,95890.13
2022-09-28T10:03:34.665Z,95893.84
2022-09-28T10:06:11.130Z,95898.50
2022-09-28T10:08:45.810Z,95899.88
2022-09-28T10:11:27.427Z,95899.31
2022-09-28T10:13:54.842Z,95897.09
2022-09-28T10:16:21.612Z,95907.72
2022-09-28T10:18:49.670Z,95903.28
2022-09-28T10:21:21.444Z,95903.47
2022-09-28T10:23:56.807Z,95912.84
2022-09-28T10:26:39.022Z,95901.59
2022-09-28T10:29:20.478Z,95919.28
2022-09-28T10:31:50.364Z,95903.00
2022-09-28T10:34:25.510Z,95903.34
2022-09-28T10:37:01.069Z,95901.13
2022-09-28T10:39:36.665Z,95895.97
2022-09-28T10:42:11.507Z,95903.91
2022-09-28T10:44:55.150Z,95906.59
2022-09-28T10:47:26.339Z,95909.19
2022-09-28T10:49:55.687Z,95909.19
2022-09-28T10:52:40.217Z,95905.75
2022-09-28T10:55:27.054Z,95902.19
2022-09-28T10:57:53.990Z,95896.75
2022-09-28T11:00:50.142Z,95903.78
2022-09-28T11:03:29.477Z,95896.94
2022-09-28T11:06:06.839Z,95900.53
2022-09-28T11:08:39.130Z,95901.41
2022-09-28T11:11:15.624Z,95904.00
2022-09-28T11:13:50.813Z,95903.38
2022-09-28T11:16:30.796Z,95904.59
2022-09-28T11:19:05.537Z,95905.72
2022-09-28T11:21:43.006Z,95904.09
2022-09-28T11:24:19.038Z,95903.84
2022-09-28T11:26:50.584Z,95907.53
2022-09-28T11:29:40.238Z,95908.88
2022-09-28T11:32:11.401Z,95900.69
2022-09-28T11:34:59.076Z,95901.31
2022-09-28T11:37:46.904Z,95910.53
2022-09-28T11:40:57.470Z,95905.59
2022-09-28T11:44:00.032Z,95901.41
2022-09-28T11:46:51.830Z,95900.16
2022-09-28T11:49:45.167Z,95900.44
2022-09-28T11:52:28.019Z,95902.41
2022-09-28T11:55:02.308Z,95896.34
2022-09-28T11:57:38.199Z,95900.03
2022-09-28T12:00:15.185Z,95902.47
2022-09-28T12:03:15.999Z,95905.81
2022-09-28T12:06:05.022Z,95919.41
2022-09-28T12:08:48.956Z,95919.41
2022-09-28T12:11:35.935Z,95917.06
2022-09-28T12:14:10.174Z,95921.47
2022-09-28T12:17:07.369Z,95922.56
2022-09-28T12:19:48.023Z,95910.50
2022-09-28T12:22:36.954Z,95908.06
2022-09-28T12:25:14.179Z,95908.28
2022-09-28T12:27:55.965Z,95903.50
2022-09-28T12:30:26.245Z,95906.38
2022-09-28T12:33:09.218Z,95899.03
2022-09-28T12:35:50.987Z,95906.78
2022-09-28T12:38:54.138Z,95909.47
2022-09-28T12:42:14.959Z,95916.34
2022-09-28T12:45:17.583Z,95896.94
2022-09-28T12:48:22.635Z,95900.38
2022-09-28T12:51:03.642Z,95918.69
2022-09-28T12:53:56.576Z,95911.91
2022-09-28T12:57:25.900Z,95902.34
2022-09-28T13:00:05.982Z,95900.75
2022-09-28T13:03:12.226Z,95912.53
2022-09-28T13:05:38.836Z,95908.56
2022-09-28T13:08:33.079Z,95908.50
2022-09-28T13:11:22.983Z,95905.59
2022-09-28T13:14:41.398Z,95906.13
2022-09-28T13:17:34.162Z,95912.84
2022-09-28T13:20:40.030Z,95914.72
2022-09-28T13:23:21.075Z,95914.28
2022-09-28T13:26:14.608Z,95911.09
2022-09-28T13:28:46.825Z,95909.88
2022-09-28T13:31:21.962Z,95914.88
2022-09-28T13:33:51.130Z,95915.91
2022-09-28T13:36:29.090Z,95910.03
2022-09-28T13:38:59.285Z,95897.91
2022-09-28T13:41:36.497Z,95911.38
2022-09-28T13:44:30.235Z,95911.75
2022-09-28T13:47:19.996Z,95906.56
2022-09-28T13:50:18.134Z,95914.78
2022-09-28T13:53:03.750Z,95907.44
2022-09-28T13:55:41.653Z,61792.09
2022-09-28T13:58:29.910Z,61792.09
2022-09-28T14:01:12.655Z,61792.09
2022-09-28T14:04:10.582Z,61792.09
2022-09-28T14:06:42.852Z,61792.09
2022-09-28T14:09:15.808Z,61792.09
2022-09-28T14:11:53.399Z,61792.09
2022-09-28T14:14:50.641Z,61792.09
2022-09-28T14:17:27.141Z,61792.09
2022-09-28T14:20:12.755Z,61792.09
2022-09-28T14:23:33.071Z,61792.09
2022-09-28T14:26:12.094Z,61792.09
2022-09-28T14:29:17.356Z,61792.09
2022-09-28T14:31:45.222Z,61792.09
2022-09-28T14:34:54.457Z,61792.09
2022-09-28T14:37:58.795Z,61792.09
2022-09-28T14:41:10.958Z,61792.09
2022-09-28T14:43:46.786Z,61792.09
2022-09-28T14:46:19.644Z,61792.09
2022-09-28T14:49:02.343Z,61792.09
2022-09-28T14:51:35.312Z,61792.09
2022-09-28T14:54:14.702Z,61792.09
2022-09-28T14:56:52.331Z,61792.09
2022-09-28T14:59:25.522Z,61792.09
2022-09-28T15:02:07.951Z,61792.09
2022-09-28T15:04:42.902Z,61792.09
2022-09-28T15:07:42.625Z,61792.09
2022-09-28T15:10:37.024Z,61792.09
2022-09-28T15:13:22.042Z,61792.09
2022-09-28T15:15:55.339Z,61792.09
2022-09-28T15:18:54.490Z,61792.09
2022-09-28T15:21:22.192Z,61792.09
2022-09-28T15:23:49.654Z,61792.09
2022-09-28T15:26:34.031Z,61792.09
2022-09-28T15:29:04.017Z,61792.09
2022-09-28T15:31:35.722Z,61792.09
2022-09-28T15:34:20.885Z,61792.09
2022-09-28T15:36:47.865Z,61792.09
2022-09-28T15:39:24.878Z,61792.09
2022-09-28T15:41:52.213Z,61792.09
2022-09-28T15:44:30.312Z,61792.09
2022-09-28T15:47:19.123Z,61792.09
2022-09-28T15:49:58.470Z,61792.09
2022-09-28T15:52:58.995Z,61792.09
2022-09-28T15:55:44.091Z,61792.09
2022-09-28T15:58:21.188Z,61792.09
2022-09-28T16:00:51.587Z,61792.09
2022-09-28T16:03:29.585Z,61792.09
2022-09-28T16:05:59.019Z,61792.09
2022-09-28T16:08:44.259Z,61792.09
2022-09-28T16:11:39.513Z,61792.09
2022-09-28T16:14:21.967Z,61792.09
2022-09-28T16:16:51.664Z,61792.09
2022-09-28T16:19:27.586Z,61792.09
2022-09-28T16:22:01.851Z,61792.09
2022-09-28T16:24:34.418Z,61792.09
2022-09-28T16:27:08.249Z,61792.09
2022-09-28T16:29:44.895Z,61792.09
2022-09-28T16:32:26.501Z,61792.09
2022-09-28T16:35:18.950Z,61792.09
2022-09-28T16:37:48.065Z,61792.09
2022-09-28T16:40:14.968Z,61792.09
2022-09-28T16:42:48.807Z,61792.09
2022-09-28T16:45:23.671Z,61792.09
2022-09-28T16:47:52.746Z,61792.09
2022-09-28T16:50:21.266Z,61792.09
2022-09-28T16:53:39.017Z,61792.09
2022-09-28T16:56:06.997Z,61792.09
2022-09-28T16:58:34.156Z,61792.09
2022-09-28T17:01:01.386Z,61792.09
2022-09-28T17:03:29.136Z,61792.09
2022-09-28T17:05:56.993Z,61792.09
2022-09-28T17:08:25.109Z,61792.09
2022-09-28T17:11:13.828Z,61792.09
2022-09-28T17:13:45.986Z,61792.09
2022-09-28T17:16:15.548Z,61792.09
2022-09-28T17:18:42.266Z,61792.09
2022-09-28T17:21:16.050Z,61792.09
2022-09-28T17:23:44.102Z,61792.09
2022-09-28T17:26:34.355Z,61792.09
2022-09-28T17:29:01.904Z,61792.09
2022-09-28T17:31:30.190Z,61792.09
2022-09-28T17:33:57.082Z,61792.09
2022-09-28T17:36:25.799Z,61792.09
2022-09-28T17:38:52.647Z,61792.09
2022-09-28T17:41:21.085Z,61792.09
2022-09-28T17:43:48.693Z,61792.09
2022-09-28T17:46:32.053Z,61792.09
2022-09-28T17:49:02.047Z,61792.09
2022-09-28T17:51:37.335Z,61792.09
2022-09-28T17:54:06.729Z,61792.09
2022-09-28T17:56:34.474Z,61792.09
2022-09-28T17:59:06.515Z,61792.09
2022-09-28T18:01:37.494Z,61792.09
2022-09-28T18:04:09.542Z,61792.09
2022-09-28T18:06:39.232Z,61792.09
2022-09-28T18:09:05.931Z,61792.09
2022-09-28T18:11:34.179Z,61792.09
2022-09-28T18:14:01.085Z,61792.09
2022-09-28T18:16:28.639Z,61792.09
2022-09-28T18:18:55.559Z,61792.09
2022-09-28T18:21:22.357Z,61792.09
2022-09-28T18:23:49.045Z,61792.09
2022-09-28T18:26:19.414Z,61792.09
2022-09-28T18:28:46.798Z,61792.09
2022-09-28T18:31:15.755Z,61792.09
2022-09-28T18:33:43.216Z,61792.09
2022-09-28T18:36:10.027Z,61792.09
2022-09-28T18:38:38.220Z,61792.09
2022-09-28T18:41:10.130Z,61792.09
2022-09-28T18:43:37.521Z,61792.09
2022-09-28T18:46:09.873Z,61792.09
2022-09-28T18:48:37.991Z,61792.09
2022-09-28T18:51:09.640Z,61792.09
2022-09-28T18:53:37.435Z,61792.09
2022-09-28T18:56:14.399Z,61792.09
2022-09-28T18:58:42.241Z,61792.09
2022-09-28T19:04:01.982Z,61792.09
2022-09-28T19:06:29.672Z,61792.09
2022-09-28T19:08:56.813Z,61792.09
2022-09-28T19:11:25.003Z,61792.09
2022-09-28T19:13:54.525Z,61792.09
2022-09-28T19:16:33.543Z,61792.09
2022-09-28T19:19:02.601Z,61792.09
2022-09-28T19:21:30.189Z,61792.09
2022-09-28T19:24:00.564Z,61792.09
2022-09-28T19:26:28.737Z,61792.09
2022-09-28T19:28:57.398Z,61792.09
2022-09-28T19:31:25.754Z,61792.09
2022-09-28T19:33:52.594Z,61792.09
2022-09-28T19:36:23.527Z,61792.09
2022-09-28T19:38:52.857Z,61792.09
2022-09-28T19:41:50.619Z,61792.09
2022-09-28T19:44:27.223Z,61792.09
2022-09-28T19:47:07.237Z,61792.09
2022-09-28T19:49:37.354Z,61792.09
2022-09-28T19:52:17.124Z,61792.09
2022-09-28T19:54:56.291Z,61792.09
2022-09-28T19:57:31.679Z,61792.09
2022-09-28T20:00:02.720Z,61792.09
2022-09-28T20:02:29.831Z,61792.09
2022-09-28T20:04:56.603Z,61792.09
2022-09-28T20:07:23.293Z,61792.09
2022-09-28T20:09:49.993Z,61792.09
2022-09-28T20:12:16.742Z,61792.09
2022-09-28T20:14:43.475Z,61792.09
2022-09-28T20:17:10.392Z,61792.09
2022-09-28T20:19:37.145Z,61792.09
2022-09-28T20:22:04.080Z,61792.09
2022-09-28T20:24:31.600Z,61792.09
2022-09-28T20:26:58.633Z,61792.09
2022-09-28T20:29:25.466Z,61792.09
2022-09-28T20:31:52.392Z,61792.09
2022-09-28T20:34:19.225Z,61792.09
2022-09-28T20:36:45.945Z,61792.09
2022-09-28T20:39:12.872Z,61792.09
2022-09-28T20:41:40.209Z,61792.09
2022-09-28T20:44:07.417Z,61792.09
2022-09-28T20:46:35.732Z,61792.09
2022-09-28T20:49:03.615Z,61792.09
2022-09-28T20:51:30.412Z,61792.09
2022-09-28T20:53:59.081Z,61792.09
2022-09-28T20:56:31.529Z,61792.09
2022-09-28T20:58:58.242Z,61792.09
2022-09-28T21:01:28.496Z,61792.09
2022-09-28T21:04:01.623Z,61792.09
2022-09-28T21:06:34.696Z,61792.09
2022-09-28T21:09:01.978Z,61792.09
2022-09-28T21:11:29.953Z,61792.09
2022-09-28T21:14:00.013Z,61792.09
2022-09-28T21:16:30.600Z,61792.09
2022-09-28T21:18:57.850Z,61792.09
2022-09-28T21:21:26.005Z,61792.09
2022-09-28T21:23:57.579Z,61792.09
2022-09-28T21:26:28.535Z,61792.09
2022-09-28T21:28:59.171Z,61792.09
2022-09-28T21:31:30.653Z,61792.09
2022-09-28T21:33:58.535Z,61792.09
2022-09-28T21:36:26.104Z,61792.09
2022-09-28T21:38:55.139Z,61792.09
2022-09-28T21:41:22.793Z,61792.09
2022-09-28T21:43:49.561Z,61792.09
2022-09-28T21:46:17.499Z,61792.09
2022-09-28T21:48:44.451Z,61792.09
2022-09-28T21:51:15.606Z,61792.09
2022-09-28T21:53:42.691Z,61792.09
2022-09-28T21:56:12.523Z,61792.09
2022-09-28T21:58:40.185Z,61792.09
2022-09-28T22:01:15.384Z,61792.09
2022-09-28T22:03:46.515Z,61792.09
2022-09-28T22:06:15.278Z,61792.09
2022-09-28T22:08:42.261Z,61792.09
2022-09-28T22:11:19.664Z,61792.09
2022-09-28T22:13:50.821Z,61792.09
2022-09-28T22:16:20.703Z,61792.09
2022-09-28T22:18:48.401Z,61792.09
2022-09-28T22:21:26.988Z,61792.09
2022-09-28T22:23:53.971Z,61792.09
2022-09-28T22:26:24.677Z,61792.09
2022-09-28T22:28:54.485Z,61792.09
2022-09-28T22:31:26.994Z,61792.09
2022-09-28T22:33:54.102Z,61792.09
2022-09-28T22:36:21.031Z,61792.09
2022-09-28T22:38:49.232Z,61792.09
2022-09-28T22:41:20.711Z,61792.09
2022-09-28T22:43:50.036Z,61792.09
2022-09-28T22:46:20.597Z,61792.09
2022-09-28T22:48:50.167Z,61792.09
2022-09-28T22:51:17.213Z,61792.09
2022-09-28T22:53:44.514Z,61792.09
2022-09-28T22:56:16.047Z,61792.09
2022-09-28T22:58:45.564Z,61792.09
2022-09-28T23:01:17.926Z,61792.09
2022-09-28T23:03:44.892Z,61792.09
2022-09-28T23:06:16.431Z,61792.09
2022-09-28T23:08:45.194Z,61792.09
2022-09-28T23:11:11.917Z,61792.09
2022-09-28T23:13:38.954Z,61792.09
2022-09-28T23:16:11.002Z,61792.09
2022-09-28T23:18:42.322Z,61792.09
2022-09-28T23:21:17.524Z,61792.09
2022-09-28T23:23:46.948Z,61792.09
2022-09-28T23:26:20.463Z,61792.09
2022-09-28T23:28:47.205Z,61792.09
2022-09-28T23:31:22.059Z,61792.09
2022-09-28T23:33:49.875Z,61792.09
2022-09-28T23:36:17.189Z,61792.09
2022-09-28T23:38:44.725Z,61792.09
2022-09-28T23:41:11.597Z,61792.09
2022-09-28T23:43:38.333Z,61792.09
2022-09-28T23:46:05.889Z,61792.09
2022-09-28T23:48:34.813Z,61792.09
2022-09-28T23:51:02.472Z,61792.09
2022-09-28T23:53:29.970Z,61792.09
2022-09-28T23:55:56.680Z,61792.09
2022-09-28T23:58:24.046Z,61792.09
